Saturday, November 22, 2014
23:45 UTC
  |  Log In   |  Register Free
Airport Search:

Enterprise Municipal Airport
(KEDN)

Enterprise Municipal Airport Diagram
No Airport Diagram Available

FAA data valid effective November 13, 2014 - January 08, 2015 (unless otherwise noted).

 
 
 
 
 
 
 
 
 
 
 
 
 
 

Current Aviation Weather for Enterprise Municipal Airport (KEDN)

The most recent METAR observation for KEDN was updated at: 2320
METAR Summary (Translated METAR)
KEDN
222255Z AUTO 09007KT 5SM -DZ BKN006 OVC010 13/13 A3015 RMK AO2 P0001
KSXS
222258Z AUTO 08005G12KT 4SM BR FEW005 SCT008 BKN021 14/14 A3018 RMK AO2
(4.6 nm NE from KEDN)
KLOR
222313Z AUTO VRB04KT 8SM BKN008 OVC023 15/14 A3015 RMK AO2 CIG 006V010 T01500139 TSNO $
(8.3 nm NE from KEDN)
TAF
No TAF information found within 50 nm of KLOR
  Airport Weather Conditions for KEDN

 Current Weather at EDN
55° F
Light Drizzle
East winds at 8.1 mph
EDN NOAA Radar

Pressure: 30.15 in
Humidity: 100%
Wind: East at 8.1 MPH (7 KT)
Dew Point: 55.4°F
Visibility: 5.00 mi


Airport Weather Forecast for KEDN

Translated METAR and TAF for KLOR
Translated METAR for KLOR (2340 UTC 22 November 2014)
found at http://aviationweather.gov/adds/metars/
 
METAR text: KLOR 222333Z AUTO 08004KT 9SM BKN010 OVC021 15/13 A3015 RMK AO2 CIG 006V012 T01500133 TSNO $
Conditions at: KLOR (LOWE AHP/FT. RUC, AL, US) observed 2333 UTC 22 November 2014
Temperature: 15.0°C (59°F)
Dewpoint: 13.3°C (56°F) [RH = 90%]
Pressure (altimeter): 30.15 inches Hg (1021.1 mb)
Winds: from the E (80 degrees) at 5 MPH (4 knots; 2.1 m/s)
Visibility: 9 miles (14 km)
Ceiling: 1000 feet AGL
Clouds: broken clouds at 1000 feet AGL
overcast cloud deck at 2100 feet AGL
Weather:
SOME DATA ABOVE MAY BE INACCURATE!!!
"$" is an indication the sensor requires maintenance
Translated TAF for KLOR

There is no translated TAF available for this airport

Find All Airport Services Find A Hotel Find A Rental Car Find A Golf Course Find A Restaurant $100 Hamburger



FBO's on the Field
FBO Company Facility Photos Services Transportation Aviation Fuel Prices: Prices include tax
Catering Weather Repair Courtesy Rental Type 100LL JetA JetA+ MOGAS 8087
 
Enterprise Municipal Airport

This FBO has not yet been rated
FS:Epic
Last Updated: Nov-04
Login to update fuel prices
SS:
Contact Enterprise Municipal AirportMore FBO Information
 
Add another FBO Facility Photos Catering Weather Repair Courtesy Rental Type 100LL JetA JetA+ MOGAS 8087
Services Transportation Aviation Fuel Prices: Prices include tax


model-print
model-print
model-print
model-print